CDT,Max TemperatureF,Mean TemperatureF,Min TemperatureF,Max Dew PointF,MeanDew PointF,Min DewpointF,Max Humidity, Mean Humidity, Min Humidity, Max Sea Level PressureIn, Mean Sea Level PressureIn, Min Sea Level PressureIn, Max VisibilityMiles, Mean VisibilityMiles, Min VisibilityMiles, Max Wind SpeedMPH, Mean Wind SpeedMPH, Max Gust SpeedMPH,PrecipitationIn, CloudCover, Events, WindDirDegrees
2012-9-1,93,78,64,67,63,61,90,63,33,30.04,29.95,29.90,10,10,10,9,4,,0.00,0,,339
2012-9-2,102,83,66,68,62,54,87,55,21,29.99,29.87,29.78,10,10,8,13,5,16,0.00,0,,132
2012-9-3,106,87,69,66,62,54,81,46,18,29.90,29.80,29.74,10,10,10,15,7,22,0.00,0,,177
2012-9-4,98,84,69,72,65,58,91,65,29,29.92,29.84,29.73,10,8,2,24,9,33,0.81,3,Rain-Thunderstorm,20
2012-9-5,91,80,68,68,65,60,90,66,42,29.89,29.83,29.76,10,10,10,21,9,25,0.04,0,,301
2012-9-6,93,78,64,65,60,56,84,53,33,29.96,29.87,29.75,10,10,10,29,8,39,0.00,0,Rain-Thunderstorm,146
2012-9-7,80,68,57,61,55,49,83,65,37,30.12,29.94,29.77,10,10,8,33,14,51,0.11,3,Rain-Thunderstorm,358
2012-9-8,81,66,51,53,48,41,89,62,25,30.26,30.15,30.07,10,10,10,14,5,21,0.00,0,,313
2012-9-9,82,68,55,49,45,39,80,52,22,30.20,30.12,30.06,10,10,10,10,5,17,0.00,0,,34
2012-9-10,90,72,53,51,47,41,80,49,19,30.12,30.03,29.92,10,10,10,20,9,26,0.00,0,,154
2012-9-11,93,74,55,48,46,45,72,38,19,29.98,29.89,29.81,10,10,10,31,12,40,0.00,0,,167
2012-9-12,93,76,61,61,53,47,83,46,27,30.10,29.91,29.83,10,10,6,25,17,37,0.03,2,Rain-Thunderstorm,176
2012-9-13,59,57,55,54,52,48,94,87,67,30.39,30.28,30.09,10,9,5,22,15,34,0.12,7,Rain,20
2012-9-14,75,62,51,51,45,37,89,62,27,30.42,30.33,30.26,10,10,10,17,8,24,0.00,0,,31
2012-9-15,70,62,55,61,55,46,94,79,65,30.28,30.18,30.09,10,9,2,8,4,,0.00,7,Rain,68
2012-9-16,79,70,61,61,59,57,90,78,48,30.14,30.03,29.90,10,10,8,10,3,,0.00,5,,176
2012-9-17,75,64,53,60,55,46,100,77,51,30.06,29.94,29.87,10,9,2,18,7,26,0.00,2,,6
2012-9-18,77,60,44,50,45,41,93,60,29,30.17,30.06,29.97,10,10,6,12,6,20,0.00,0,,251
2012-9-19,91,72,54,53,47,39,69,43,23,29.96,29.91,29.81,10,10,10,16,10,22,0.00,0,,194
2012-9-20,82,70,57,44,38,34,50,34,18,30.06,29.97,29.93,10,10,10,13,9,21,0.00,0,,77
2012-9-21,87,71,53,48,43,40,71,44,19,29.97,29.91,29.86,10,10,10,15,5,21,0.00,0,,344
2012-9-22,75,62,50,45,35,26,80,42,21,30.23,30.15,29.97,10,10,10,14,6,23,0.00,0,,35
2012-9-23,75,60,46,39,34,26,71,42,23,30.29,30.22,30.12,10,10,10,14,7,18,0.00,2,Rain-Thunderstorm,109
2012-9-24,90,71,52,58,49,39,70,51,27,30.11,29.91,29.75,10,10,10,16,8,21,0.00,0,,153
2012-9-25,84,70,57,63,56,53,94,65,37,29.89,29.79,29.73,10,10,2,38,6,59,0.34,2,Rain-Thunderstorm,68
2012-9-26,77,68,60,63,61,57,90,81,60,30.12,29.97,29.78,10,10,10,10,7,21,0.00,5,Rain-Thunderstorm,64
2012-9-27,73,66,60,62,59,56,93,81,64,30.18,30.12,30.06,10,10,7,8,5,,0.00,5,,51
2012-9-28,75,66,57,63,60,55,100,91,65,30.17,30.12,30.05,10,4,0,12,3,,0.00,5,Fog-Rain,66
2012-9-29,73,64,55,60,54,47,100,79,40,30.16,30.09,30.02,10,5,0,10,4,17,0.00,2,Fog,59
2012-9-30,77,64,48,51,45,36,89,62,23,30.03,29.96,29.89,10,10,10,7,2,,0.00,0,,34